Airfield :
LOGIN :

Register | Disclaimer

   EN    FR    IT 

 










Legend :    VFR   Marginal VFR   IFR   Intensive IFR   Very Intensive IFR
Visi :
Ceiling :
>= 8 km
>= 3000ft
5 to 8 km
1000 to 3000 ft
1500m to 5 km
500 to 1000 ft
800 to 1500m
200 to 500 ft
< 800m
< 200 ft
Symbols :   Thunderstorms  Fog  Heavy snow  Heavy precipitations  Wind > 20 kt
SIGMETs :     Misc.  Thunderstorms  Icing  Turbulence  Mountain Waves  Volcanic Ashes






- Airport Elevation : 90 ft
- IATA code : NTE


LFRS - Nantes

CURRENT METAR :
  • 101330Z AUTO 18009KT 9999 -RA FEW045 SCT062 BKN076 10/08 Q1022 BECMG 19015G25KT

EXPIRED METARs :
  • 101300Z AUTO 17008KT 9999 -RA FEW035/// BKN064/// BKN076/// ///TCU 10/08 Q1023 BECMG SCT020 BKN040 OVC045
  • 101230Z AUTO 17009KT 9999 -RA FEW028/// SCT058/// OVC092/// ///TCU 09/08 Q1023 BECMG SCT020 BKN040 OVC045
  • 101200Z AUTO 17012KT 9999 FEW028/// OVC088/// ///TCU 09/07 Q1024 BECMG SCT020 BKN040 OVC045
  • 101130Z AUTO 18011KT 9999 OVC030/// ///TCU 09/07 Q1024 BECMG NSC
  • 101100Z AUTO 17013KT 9999 OVC031/// ///TCU 09/07 Q1025 BECMG NSC

TAF AMD TAF LFRS
Valid from the 10 at 12:00 until the 11 at 18:00 UTC


101215Z 1012/1118 18012KT 9999 SCT020 BKN040 OVC045
BECMG 1015/1017 19015G25KT
TEMPO 1017/1024 4500 -RA
TEMPO 1022/1024 3000 RA BKN010
BECMG 1100/1102 29008KT
TEMPO 1104/1118 4500 SHRA BKN020TCU
BECMG 1111/1113 25015G25KT
TEMPO 1112/1116 25020G40KT 2500 TSRAGR BKN008 BKN015CB
ATIS : +33 2 40 05 12 74



MET'MAP, your aeronautical weather chart ! - Copyright ORBIFLY December 2007 - Disclaimer

ORBIFLY MET'MAP TEAM :

Programming & Development : Alexandra Zaïnal
Concept & original design : Baudouin d'Aumeries
Assistance for programming : Marc-Olivier Méhu
Technical & hardware support : Manuel Goepfert

Contact : metmap@orbifly.com




SOURCES & CREDITS :

   NOAA